Terminal Aerodrome Forecast
Issued by NWS

Home | Current Version | Previous Version | Text Only | Print | Product List | Glossary On
Versions: 1 2 3 4 5 6 7 8 9 10 11 12 13
000
FTUS42 TJSJ 050015 CCA
TAFISX
TAF COR
TISX 050015Z 0500/0524 07011KT P6SM VCSH SCT025 BKN050
     FM050300 06007KT P6SM FEW022 SCT050 SCT080 PROB30 0509/0513
      VRB12KT 5SM SHRA BKN022
     FM051400 11013KT P6SM FEW030 SCT050
     FM052200 06006KT P6SM SCT025=

USA.gov is the U.S. government's official web portal to all federal, state and local government web resources and services.